Aviation Digital Data Service (ADDS)

Output produced by METARs form (0340 UTC 26 April 2019)
found at http://www.aviationweather.gov/metar/data/
 
METAR text: PAKN 260254Z 29011KT 10SM FEW041 BKN090 09/M05 A3016 RMK AO2 SLP215 T00891050 53007
Conditions at: PAKN (KING SALMON , AK, US) observed 0254 UTC 26 April 2019
Temperature: 8.9°C (48°F)
Dewpoint: -5.0°C (23°F) [RH = 37%]
Pressure (altimeter): 30.16 inches Hg (1021.4 mb)
[Sea-level pressure: 1021.5 mb]
Winds: from the WNW (290 degrees) at 13 MPH (11 knots; 5.7 m/s)
Visibility: 10 or more miles (16+ km)
Ceiling: 9000 feet AGL
Clouds: few clouds at 4100 feet AGL
broken clouds at 9000 feet AGL
Weather: no significant weather observed at this time

METAR text: PAKN 260154Z 10SM OVC065 11/M06 A3015 RMK AO2 SLP209 T01061056
Conditions at: PAKN (KING SALMON , AK, US) observed 0154 UTC 26 April 2019
Temperature: 10.6°C (51°F)
Dewpoint: -5.6°C (22°F) [RH = 32%]
Pressure (altimeter): 30.15 inches Hg (1021.1 mb)
[Sea-level pressure: 1020.9 mb]
Winds: missing
Visibility: 10 or more miles (16+ km)
Ceiling: 6500 feet AGL
Clouds: overcast cloud deck at 6500 feet AGL
Weather: no significant weather observed at this time

METAR text: PAKN 260054Z VRB06KT 10SM BKN070 11/M06 A3014 RMK AO2 SLP208 T01061061
Conditions at: PAKN (KING SALMON , AK, US) observed 0054 UTC 26 April 2019
Temperature: 10.6°C (51°F)
Dewpoint: -6.1°C (21°F) [RH = 30%]
Pressure (altimeter): 30.14 inches Hg (1020.7 mb)
[Sea-level pressure: 1020.8 mb]
Winds: variable direction winds at 7 MPH (6 knots; 3.1 m/s)
Visibility: 10 or more miles (16+ km)
Ceiling: 7000 feet AGL
Clouds: broken clouds at 7000 feet AGL
Weather: no significant weather observed at this time

METAR text: PAKN 252354Z 28007G14KT 10SM SCT060 10/M06 A3014 RMK AO2 SLP208 6//// T01001061 10100 20000 51005
Conditions at: PAKN (KING SALMON , AK, US) observed 2354 UTC 25 April 2019
Temperature: 10.0°C (50°F)
Dewpoint: -6.1°C (21°F) [RH = 32%]
Pressure (altimeter): 30.14 inches Hg (1020.7 mb)
[Sea-level pressure: 1020.8 mb]
Winds: from the W (280 degrees) at 8 MPH (7 knots; 3.6 m/s)
gusting to 16 MPH (14 knots; 7.2 m/s)
Visibility: 10 or more miles (16+ km)
Ceiling: at least 12,000 feet AGL
Clouds: scattered clouds at 6000 feet AGL
Weather: no significant weather observed at this time

METAR text: PAKN 252254Z 31008KT 10SM FEW055 09/M06 A3014 RMK AO2 SLP208 T00891061
Conditions at: PAKN (KING SALMON , AK, US) observed 2254 UTC 25 April 2019
Temperature: 8.9°C (48°F)
Dewpoint: -6.1°C (21°F) [RH = 34%]
Pressure (altimeter): 30.14 inches Hg (1020.7 mb)
[Sea-level pressure: 1020.8 mb]
Winds: from the NW (310 degrees) at 9 MPH (8 knots; 4.1 m/s)
Visibility: 10 or more miles (16+ km)
Ceiling: at least 12,000 feet AGL
Clouds: few clouds at 5500 feet AGL
Weather: no significant weather observed at this time

METAR text: PAKN 252154Z 30009G14KT 10SM FEW050 08/M06 A3014 RMK AO2 SLP205 T00831056
Conditions at: PAKN (KING SALMON , AK, US) observed 2154 UTC 25 April 2019
Temperature: 8.3°C (47°F)
Dewpoint: -5.6°C (22°F) [RH = 37%]
Pressure (altimeter): 30.14 inches Hg (1020.7 mb)
[Sea-level pressure: 1020.5 mb]
Winds: from the WNW (300 degrees) at 10 MPH (9 knots; 4.6 m/s)
gusting to 16 MPH (14 knots; 7.2 m/s)
Visibility: 10 or more miles (16+ km)
Ceiling: at least 12,000 feet AGL
Clouds: few clouds at 5000 feet AGL
Weather: no significant weather observed at this time

METAR text: PAKN 252054Z VRB04KT 10SM CLR 08/M05 A3013 RMK AO2 SLP203 6//// T00781050 53005
Conditions at: PAKN (KING SALMON , AK, US) observed 2054 UTC 25 April 2019
Temperature: 7.8°C (46°F)
Dewpoint: -5.0°C (23°F) [RH = 40%]
Pressure (altimeter): 30.13 inches Hg (1020.4 mb)
[Sea-level pressure: 1020.3 mb]
Winds: variable direction winds at 5 MPH (4 knots; 2.1 m/s)
Visibility: 10 or more miles (16+ km)
Ceiling: at least 12,000 feet AGL
Clouds: sky clear below 12,000 feet AGL
Weather: no significant weather observed at this time

METAR text: PAKN 251954Z 25006KT 10SM FEW060 06/M04 A3012 RMK AO2 SLP202 T00561044
Conditions at: PAKN (KING SALMON , AK, US) observed 1954 UTC 25 April 2019
Temperature: 5.6°C (42°F)
Dewpoint: -4.4°C (24°F) [RH = 48%]
Pressure (altimeter): 30.12 inches Hg (1020.1 mb)
[Sea-level pressure: 1020.2 mb]
Winds: from the WSW (250 degrees) at 7 MPH (6 knots; 3.1 m/s)
Visibility: 10 or more miles (16+ km)
Ceiling: at least 12,000 feet AGL
Clouds: few clouds at 6000 feet AGL
Weather: no significant weather observed at this time

METAR text: PAKN 251854Z VRB03KT 10SM CLR 03/M05 A3011 RMK AO2 SLP198 T00331050 PNO $
Conditions at: PAKN (KING SALMON , AK, US) observed 1854 UTC 25 April 2019
Temperature: 3.3°C (38°F)
Dewpoint: -5.0°C (23°F) [RH = 54%]
Pressure (altimeter): 30.11 inches Hg (1019.7 mb)
[Sea-level pressure: 1019.8 mb]
Winds: variable direction winds at 3 MPH (3 knots; 1.5 m/s)
Visibility: 10 or more miles (16+ km)
Ceiling: at least 12,000 feet AGL
Clouds: sky clear below 12,000 feet AGL
Weather:
SOME DATA ABOVE MAY BE INACCURATE!!!
"$" is an indication the sensor requires maintenance

METAR text: PAKN 251754Z 00000KT OVC065 00/M05 A3011 RMK AO2 SLP197 6//// T00001050 10000 21067 53013 PNO $
Conditions at: PAKN (KING SALMON , AK, US) observed 1754 UTC 25 April 2019
Temperature: 0.0°C (32°F)
Dewpoint: -5.0°C (23°F) [RH = 69%]
Pressure (altimeter): 30.11 inches Hg (1019.7 mb)
[Sea-level pressure: 1019.7 mb]
Winds: calm
Visibility: missing
Ceiling: 6500 feet AGL
Clouds: overcast cloud deck at 6500 feet AGL
Weather:
SOME DATA ABOVE MAY BE INACCURATE!!!
"$" is an indication the sensor requires maintenance

METAR text: PAKN 251654Z 00000KT 10SM FEW070 M03/M07 A3010 RMK AO2 SLP193 T10331067 $
Conditions at: PAKN (KING SALMON , AK, US) observed 1654 UTC 25 April 2019
Temperature: -3.3°C (26°F)
Dewpoint: -6.7°C (20°F) [RH = 77%]
Pressure (altimeter): 30.10 inches Hg (1019.4 mb)
[Sea-level pressure: 1019.3 mb]
Winds: calm
Visibility: 10 or more miles (16+ km)
Ceiling: at least 12,000 feet AGL
Clouds: few clouds at 7000 feet AGL
Weather:
SOME DATA ABOVE MAY BE INACCURATE!!!
"$" is an indication the sensor requires maintenance

METAR text: PAKN 251554Z 33003KT 10SM BKN060 M05/M08 A3009 RMK AO2 SLP189 T10501078
Conditions at: PAKN (KING SALMON , AK, US) observed 1554 UTC 25 April 2019
Temperature: -5.0°C (23°F)
Dewpoint: -7.8°C (18°F) [RH = 81%]
Pressure (altimeter): 30.09 inches Hg (1019.0 mb)
[Sea-level pressure: 1018.9 mb]
Winds: from the NNW (330 degrees) at 3 MPH (3 knots; 1.5 m/s)
Visibility: 10 or more miles (16+ km)
Ceiling: 6000 feet AGL
Clouds: broken clouds at 6000 feet AGL
Weather: no significant weather observed at this time

METAR text: PAKN 251454Z AUTO 00000KT 10SM CLR M07/M09 A3007 RMK AO2 SLP184 T10671089 53006 TSNO
Conditions at: PAKN (KING SALMON , AK, US) observed 1454 UTC 25 April 2019
Temperature: -6.7°C (20°F)
Dewpoint: -8.9°C (16°F) [RH = 84%]
Pressure (altimeter): 30.07 inches Hg (1018.4 mb)
[Sea-level pressure: 1018.4 mb]
Winds: calm
Visibility: 10 or more miles (16+ km)
Ceiling: at least 12,000 feet AGL
Clouds: sky clear below 12,000 feet AGL
Weather: automated observation with no human augmentation;
there may or may not be significant weather present at this time

METAR text: PAKN 251354Z AUTO 30004KT 10SM CLR M06/M08 A3007 RMK AO2 SLP182 T10561078 TSNO
Conditions at: PAKN (KING SALMON , AK, US) observed 1354 UTC 25 April 2019
Temperature: -5.6°C (22°F)
Dewpoint: -7.8°C (18°F) [RH = 84%]
Pressure (altimeter): 30.07 inches Hg (1018.4 mb)
[Sea-level pressure: 1018.2 mb]
Winds: from the WNW (300 degrees) at 5 MPH (4 knots; 2.1 m/s)
Visibility: 10 or more miles (16+ km)
Ceiling: at least 12,000 feet AGL
Clouds: sky clear below 12,000 feet AGL
Weather: automated observation with no human augmentation;
there may or may not be significant weather present at this time

METAR text: PAKN 251254Z AUTO 00000KT 10SM CLR M05/M08 A3006 RMK AO2 SLP180 T10501078 TSNO
Conditions at: PAKN (KING SALMON , AK, US) observed 1254 UTC 25 April 2019
Temperature: -5.0°C (23°F)
Dewpoint: -7.8°C (18°F) [RH = 81%]
Pressure (altimeter): 30.06 inches Hg (1018.0 mb)
[Sea-level pressure: 1018.0 mb]
Winds: calm
Visibility: 10 or more miles (16+ km)
Ceiling: at least 12,000 feet AGL
Clouds: sky clear below 12,000 feet AGL
Weather: automated observation with no human augmentation;
there may or may not be significant weather present at this time

METAR text: PAKN 251154Z 01007KT 10SM FEW080 FEW230 M04/M07 A3006 RMK AO2 SLP179 T10441072 10028 21044 51010
Conditions at: PAKN (KING SALMON , AK, US) observed 1154 UTC 25 April 2019
Temperature: -4.4°C (24°F)
Dewpoint: -7.2°C (19°F) [RH = 81%]
Pressure (altimeter): 30.06 inches Hg (1018.0 mb)
[Sea-level pressure: 1017.9 mb]
Winds: from the N (10 degrees) at 8 MPH (7 knots; 3.6 m/s)
Visibility: 10 or more miles (16+ km)
Ceiling: at least 12,000 feet AGL
Clouds: few clouds at 8000 feet AGL
few clouds at 23000 feet AGL
Weather: no significant weather observed at this time

METAR text: PAKN 251054Z 03004KT 10SM FEW090 FEW230 M03/M07 A3005 RMK AO2 SLP178 T10331072
Conditions at: PAKN (KING SALMON , AK, US) observed 1054 UTC 25 April 2019
Temperature: -3.3°C (26°F)
Dewpoint: -7.2°C (19°F) [RH = 74%]
Pressure (altimeter): 30.05 inches Hg (1017.7 mb)
[Sea-level pressure: 1017.8 mb]
Winds: from the NNE (30 degrees) at 5 MPH (4 knots; 2.1 m/s)
Visibility: 10 or more miles (16+ km)
Ceiling: at least 12,000 feet AGL
Clouds: few clouds at 9000 feet AGL
few clouds at 23000 feet AGL
Weather: no significant weather observed at this time

METAR text: PAKN 250954Z 34010KT 10SM FEW090 FEW230 M02/M07 A3004 RMK AO2 SLP174 T10171067
Conditions at: PAKN (KING SALMON , AK, US) observed 0954 UTC 25 April 2019
Temperature: -1.7°C (29°F)
Dewpoint: -6.7°C (20°F) [RH = 69%]
Pressure (altimeter): 30.04 inches Hg (1017.4 mb)
[Sea-level pressure: 1017.4 mb]
Winds: from the NNW (340 degrees) at 12 MPH (10 knots; 5.1 m/s)
Visibility: 10 or more miles (16+ km)
Ceiling: at least 12,000 feet AGL
Clouds: few clouds at 9000 feet AGL
few clouds at 23000 feet AGL
Weather: no significant weather observed at this time

METAR text: PAKN 250854Z 34009KT 10SM FEW090 FEW230 M01/M06 A3003 RMK AO2 SLP168 T10111061 400831067 51014
Conditions at: PAKN (KING SALMON , AK, US) observed 0854 UTC 25 April 2019
Temperature: -1.1°C (30°F)
Dewpoint: -6.1°C (21°F) [RH = 69%]
Pressure (altimeter): 30.03 inches Hg (1017.0 mb)
[Sea-level pressure: 1016.8 mb]
Winds: from the NNW (340 degrees) at 10 MPH (9 knots; 4.6 m/s)
Visibility: 10 or more miles (16+ km)
Ceiling: at least 12,000 feet AGL
Clouds: few clouds at 9000 feet AGL
few clouds at 23000 feet AGL
Weather: no significant weather observed at this time

METAR text: PAKN 250754Z 35007KT 10SM FEW090 FEW230 M01/M07 A3001 RMK AO2 SLP162 T10061072
Conditions at: PAKN (KING SALMON , AK, US) observed 0754 UTC 25 April 2019
Temperature: -0.6°C (31°F)
Dewpoint: -7.2°C (19°F) [RH = 61%]
Pressure (altimeter): 30.01 inches Hg (1016.3 mb)
[Sea-level pressure: 1016.2 mb]
Winds: from the N (350 degrees) at 8 MPH (7 knots; 3.6 m/s)
Visibility: 10 or more miles (16+ km)
Ceiling: at least 12,000 feet AGL
Clouds: few clouds at 9000 feet AGL
few clouds at 23000 feet AGL
Weather: no significant weather observed at this time

METAR text: PAKN 250654Z 36005KT 10SM FEW090 FEW230 01/M07 A3000 RMK AO2 SLP161 T00061072
Conditions at: PAKN (KING SALMON , AK, US) observed 0654 UTC 25 April 2019
Temperature: 0.6°C (33°F)
Dewpoint: -7.2°C (19°F) [RH = 56%]
Pressure (altimeter): 30.00 inches Hg (1016.0 mb)
[Sea-level pressure: 1016.1 mb]
Winds: from the N (360 degrees) at 6 MPH (5 knots; 2.6 m/s)
Visibility: 10 or more miles (16+ km)
Ceiling: at least 12,000 feet AGL
Clouds: few clouds at 9000 feet AGL
few clouds at 23000 feet AGL
Weather: no significant weather observed at this time

METAR text: PAKN 250554Z 01006KT 10SM FEW055 SCT090 SCT230 03/M07 A2998 RMK AO2 SLP154 T00281072 10083 20028 51016
Conditions at: PAKN (KING SALMON , AK, US) observed 0554 UTC 25 April 2019
Temperature: 2.8°C (37°F)
Dewpoint: -7.2°C (19°F) [RH = 48%]
Pressure (altimeter): 29.98 inches Hg (1015.3 mb)
[Sea-level pressure: 1015.4 mb]
Winds: from the N (10 degrees) at 7 MPH (6 knots; 3.1 m/s)
Visibility: 10 or more miles (16+ km)
Ceiling: at least 12,000 feet AGL
Clouds: few clouds at 5500 feet AGL
scattered clouds at 9000 feet AGL
scattered clouds at 23000 feet AGL
Weather: no significant weather observed at this time

METAR text: PAKN 250454Z 04007KT 10SM FEW055 SCT090 SCT230 04/M07 A2997 RMK AO2 SLP150 T00441067
Conditions at: PAKN (KING SALMON , AK, US) observed 0454 UTC 25 April 2019
Temperature: 4.4°C (40°F)
Dewpoint: -6.7°C (20°F) [RH = 44%]
Pressure (altimeter): 29.97 inches Hg (1015.0 mb)
[Sea-level pressure: 1015.0 mb]
Winds: from the NE (40 degrees) at 8 MPH (7 knots; 3.6 m/s)
Visibility: 10 or more miles (16+ km)
Ceiling: at least 12,000 feet AGL
Clouds: few clouds at 5500 feet AGL
scattered clouds at 9000 feet AGL
scattered clouds at 23000 feet AGL
Weather: no significant weather observed at this time

METAR text: PAKN 250354Z 05012G18KT 10SM CLR 05/M08 A2996 RMK AO2 PK WND 06026/0318 SLP146 T00501078
Conditions at: PAKN (KING SALMON , AK, US) observed 0354 UTC 25 April 2019
Temperature: 5.0°C (41°F)
Dewpoint: -7.8°C (18°F) [RH = 39%]
Pressure (altimeter): 29.96 inches Hg (1014.6 mb)
[Sea-level pressure: 1014.6 mb]
Winds: from the NE (50 degrees) at 14 MPH (12 knots; 6.2 m/s)
gusting to 21 MPH (18 knots; 9.3 m/s)
Visibility: 10 or more miles (16+ km)
Ceiling: at least 12,000 feet AGL
Clouds: sky clear below 12,000 feet AGL
Weather: no significant weather observed at this time

METAR text: PAKN 250254Z 05016G21KT 10SM CLR 07/M06 A2994 RMK AO2 SLP139 T00671061 53009
Conditions at: PAKN (KING SALMON , AK, US) observed 0254 UTC 25 April 2019
Temperature: 6.7°C (44°F)
Dewpoint: -6.1°C (21°F) [RH = 39%]
Pressure (altimeter): 29.94 inches Hg (1014.0 mb)
[Sea-level pressure: 1013.9 mb]
Winds: from the NE (50 degrees) at 18 MPH (16 knots; 8.2 m/s)
gusting to 24 MPH (21 knots; 10.8 m/s)
Visibility: 10 or more miles (16+ km)
Ceiling: at least 12,000 feet AGL
Clouds: sky clear below 12,000 feet AGL
Weather: no significant weather observed at this time

METAR text: PAKN 250154Z 04015G20KT 10SM CLR 07/M07 A2993 RMK AO2 SLP135 T00721067
Conditions at: PAKN (KING SALMON , AK, US) observed 0154 UTC 25 April 2019
Temperature: 7.2°C (45°F)
Dewpoint: -6.7°C (20°F) [RH = 36%]
Pressure (altimeter): 29.93 inches Hg (1013.6 mb)
[Sea-level pressure: 1013.5 mb]
Winds: from the NE (40 degrees) at 17 MPH (15 knots; 7.7 m/s)
gusting to 23 MPH (20 knots; 10.3 m/s)
Visibility: 10 or more miles (16+ km)
Ceiling: at least 12,000 feet AGL
Clouds: sky clear below 12,000 feet AGL
Weather: no significant weather observed at this time

METAR text: PAKN 250054Z 04009G20KT 360V080 10SM FEW050 07/M06 A2992 RMK AO2 SLP131 T00721061
Conditions at: PAKN (KING SALMON , AK, US) observed 0054 UTC 25 April 2019
Temperature: 7.2°C (45°F)
Dewpoint: -6.1°C (21°F) [RH = 38%]
Pressure (altimeter): 29.92 inches Hg (1013.3 mb)
[Sea-level pressure: 1013.1 mb]
Winds: from the NE (40 degrees) at 10 MPH (9 knots; 4.6 m/s)
gusting to 23 MPH (20 knots; 10.3 m/s)
Visibility: 10 or more miles (16+ km)
Ceiling: at least 12,000 feet AGL
Clouds: few clouds at 5000 feet AGL
Weather: no significant weather observed at this time

METAR text: PAKN 242354Z 08007KT 10SM BKN055 07/M08 A2991 RMK AO2 SLP129 T00721083 10078 21006 54000
Conditions at: PAKN (KING SALMON , AK, US) observed 2354 UTC 24 April 2019
Temperature: 7.2°C (45°F)
Dewpoint: -8.3°C (17°F) [RH = 32%]
Pressure (altimeter): 29.91 inches Hg (1013.0 mb)
[Sea-level pressure: 1012.9 mb]
Winds: from the E (80 degrees) at 8 MPH (7 knots; 3.6 m/s)
Visibility: 10 or more miles (16+ km)
Ceiling: 5500 feet AGL
Clouds: broken clouds at 5500 feet AGL
Weather: no significant weather observed at this time

METAR text: PAKN 242254Z 02009KT 10SM CLR 07/M08 A2991 RMK AO2 SLP129 T00671078
Conditions at: PAKN (KING SALMON , AK, US) observed 2254 UTC 24 April 2019
Temperature: 6.7°C (44°F)
Dewpoint: -7.8°C (18°F) [RH = 35%]
Pressure (altimeter): 29.91 inches Hg (1013.0 mb)
[Sea-level pressure: 1012.9 mb]
Winds: from the NNE (20 degrees) at 10 MPH (9 knots; 4.6 m/s)
Visibility: 10 or more miles (16+ km)
Ceiling: at least 12,000 feet AGL
Clouds: sky clear below 12,000 feet AGL
Weather: no significant weather observed at this time

METAR text: PAKN 242154Z 04009KT 360V080 10SM CLR 06/M08 A2991 RMK AO2 SLP130 T00611083
Conditions at: PAKN (KING SALMON , AK, US) observed 2154 UTC 24 April 2019
Temperature: 6.1°C (43°F)
Dewpoint: -8.3°C (17°F) [RH = 35%]
Pressure (altimeter): 29.91 inches Hg (1013.0 mb)
[Sea-level pressure: 1013.0 mb]
Winds: from the NE (40 degrees) at 10 MPH (9 knots; 4.6 m/s)
Visibility: 10 or more miles (16+ km)
Ceiling: at least 12,000 feet AGL
Clouds: sky clear below 12,000 feet AGL
Weather: no significant weather observed at this time

METAR text: PAKN 242054Z 09008KT 10SM CLR 05/M09 A2991 RMK AO2 SLP129 T00501089 53006
Conditions at: PAKN (KING SALMON , AK, US) observed 2054 UTC 24 April 2019
Temperature: 5.0°C (41°F)
Dewpoint: -8.9°C (16°F) [RH = 36%]
Pressure (altimeter): 29.91 inches Hg (1013.0 mb)
[Sea-level pressure: 1012.9 mb]
Winds: from the E (90 degrees) at 9 MPH (8 knots; 4.1 m/s)
Visibility: 10 or more miles (16+ km)
Ceiling: at least 12,000 feet AGL
Clouds: sky clear below 12,000 feet AGL
Weather: no significant weather observed at this time

METAR text: PAKN 241954Z 03011KT 10SM CLR 05/M07 A2990 RMK AO2 SLP127 T00501067
Conditions at: PAKN (KING SALMON , AK, US) observed 1954 UTC 24 April 2019
Temperature: 5.0°C (41°F)
Dewpoint: -6.7°C (20°F) [RH = 42%]
Pressure (altimeter): 29.90 inches Hg (1012.6 mb)
[Sea-level pressure: 1012.7 mb]
Winds: from the NNE (30 degrees) at 13 MPH (11 knots; 5.7 m/s)
Visibility: 10 or more miles (16+ km)
Ceiling: at least 12,000 feet AGL
Clouds: sky clear below 12,000 feet AGL
Weather: no significant weather observed at this time

METAR text: PAKN 241854Z 02010KT 10SM CLR 02/M06 A2990 RMK AO2 SLP125 T00221061
Conditions at: PAKN (KING SALMON , AK, US) observed 1854 UTC 24 April 2019
Temperature: 2.2°C (36°F)
Dewpoint: -6.1°C (21°F) [RH = 54%]
Pressure (altimeter): 29.90 inches Hg (1012.6 mb)
[Sea-level pressure: 1012.5 mb]
Winds: from the NNE (20 degrees) at 12 MPH (10 knots; 5.1 m/s)
Visibility: 10 or more miles (16+ km)
Ceiling: at least 12,000 feet AGL
Clouds: sky clear below 12,000 feet AGL
Weather: no significant weather observed at this time

METAR text: PAKN 241754Z 02012KT 10SM CLR M01/M07 A2989 RMK AO2 SLP124 T10061072 11006 21067 53006
Conditions at: PAKN (KING SALMON , AK, US) observed 1754 UTC 24 April 2019
Temperature: -0.6°C (31°F)
Dewpoint: -7.2°C (19°F) [RH = 61%]
Pressure (altimeter): 29.89 inches Hg (1012.3 mb)
[Sea-level pressure: 1012.4 mb]
Winds: from the NNE (20 degrees) at 14 MPH (12 knots; 6.2 m/s)
Visibility: 10 or more miles (16+ km)
Ceiling: at least 12,000 feet AGL
Clouds: sky clear below 12,000 feet AGL
Weather: no significant weather observed at this time

METAR text: PAKN 241654Z 01012KT 10SM CLR M03/M08 A2989 RMK AO2 SLP121 T10331078
Conditions at: PAKN (KING SALMON , AK, US) observed 1654 UTC 24 April 2019
Temperature: -3.3°C (26°F)
Dewpoint: -7.8°C (18°F) [RH = 71%]
Pressure (altimeter): 29.89 inches Hg (1012.3 mb)
[Sea-level pressure: 1012.1 mb]
Winds: from the N (10 degrees) at 14 MPH (12 knots; 6.2 m/s)
Visibility: 10 or more miles (16+ km)
Ceiling: at least 12,000 feet AGL
Clouds: sky clear below 12,000 feet AGL
Weather: no significant weather observed at this time

METAR text: PAKN 241554Z AUTO 01011KT 10SM CLR M06/M09 A2988 RMK AO2 SLP118 T10561094 TSNO
Conditions at: PAKN (KING SALMON , AK, US) observed 1554 UTC 24 April 2019
Temperature: -5.6°C (22°F)
Dewpoint: -9.4°C (15°F) [RH = 75%]
Pressure (altimeter): 29.88 inches Hg (1011.9 mb)
[Sea-level pressure: 1011.8 mb]
Winds: from the N (10 degrees) at 13 MPH (11 knots; 5.7 m/s)
Visibility: 10 or more miles (16+ km)
Ceiling: at least 12,000 feet AGL
Clouds: sky clear below 12,000 feet AGL
Weather: automated observation with no human augmentation;
there may or may not be significant weather present at this time

Forecast for: PAKN (KING SALMON , AK, US)
Text: PAKN 252327Z 2600/2624 35010KT P6SM SCT050
Forecast period: 0000 UTC 26 April 2019 to 0000 UTC 27 April 2019
Forecast type: FROM: standard forecast or significant change
Winds: from the N (350 degrees) at 12 MPH (10 knots; 5.1 m/s)
Visibility: 6 or more miles 10+ km)
Ceiling: at least 12,000 feet AGL
Clouds: scattered clouds at 5000 feet AGL
Weather: no significant weather forecast for this period